Time;durP1;ratioP1;P1;durP2;ratioP2;P2;SDS_P1;SDS_P2;PMS_P1;PMS_P2;Temp;Humidity;BMP_temperature;BMP_pressure;BME280_temperature;BME280_humidity;BME280_pressure;Samples;Min_cycle;Max_cycle;Signal;HPM_P1;HPM_P2
2021/06/07 00:01:49;;;;;;;25.23;22.37;;;16.60;99.90;;;;;;5007017;28;20527;-68
2021/06/07 00:04:15;;;;;;;25.73;23.23;;;16.60;99.90;;;;;;5001317;28;20262;-67
2021/06/07 00:06:41;;;;;;;23.57;21.37;;;16.60;99.90;;;;;;5006760;28;20427;-67
2021/06/07 00:09:10;;;;;;;26.23;23.83;;;16.60;99.90;;;;;;5006759;28;20429;-67
2021/06/07 00:11:38;;;;;;;26.27;23.70;;;16.60;99.90;;;;;;5003563;28;20197;-67
2021/06/07 00:14:05;;;;;;;26.33;23.83;;;16.60;99.90;;;;;;5000626;28;20996;-67
2021/06/07 00:16:31;;;;;;;27.50;24.70;;;16.60;99.90;;;;;;5007710;28;20435;-68
2021/06/07 00:18:57;;;;;;;27.20;24.07;;;16.50;99.90;;;;;;5006660;28;20932;-67
2021/06/07 00:21:25;;;;;;;28.50;25.50;;;16.50;99.90;;;;;;5004790;28;20440;-68
2021/06/07 00:23:52;;;;;;;27.67;24.77;;;16.50;99.90;;;;;;5007705;28;20435;-67
2021/06/07 00:26:17;;;;;;;27.33;24.63;;;16.50;99.90;;;;;;5004568;28;20817;-67
2021/06/07 00:28:43;;;;;;;26.67;23.97;;;16.50;99.90;;;;;;5005255;28;20454;-67
2021/06/07 00:31:10;;;;;;;27.40;24.50;;;16.50;99.90;;;;;;5007252;28;20331;-68
2021/06/07 00:33:37;;;;;;;29.20;26.33;;;16.50;99.90;;;;;;5000913;28;20193;-68
2021/06/07 00:36:05;;;;;;;28.23;25.23;;;16.50;99.90;;;;;;5010350;28;20435;-68
2021/06/07 00:38:31;;;;;;;27.17;24.67;;;16.50;99.90;;;;;;5010412;28;20428;-67
2021/06/07 00:41:00;;;;;;;27.57;24.87;;;16.50;99.90;;;;;;5010479;28;20467;-67
2021/06/07 00:43:25;;;;;;;27.53;24.83;;;16.50;99.90;;;;;;4997564;28;20256;-67
2021/06/07 00:45:51;;;;;;;26.50;23.80;;;16.50;99.90;;;;;;5008738;28;20666;-68
2021/06/07 00:48:18;;;;;;;27.73;23.60;;;16.50;99.90;;;;;;5001316;28;20204;-68
2021/06/07 00:50:48;;;;;;;25.70;23.10;;;16.50;99.90;;;;;;5007961;28;20260;-68
2021/06/07 00:53:17;;;;;;;26.67;24.17;;;16.40;99.90;;;;;;5004407;28;20423;-68
2021/06/07 00:55:50;;;;;;;25.53;22.83;;;16.40;99.90;;;;;;5009380;28;20424;-67
2021/06/07 00:58:18;;;;;;;26.53;23.83;;;16.40;99.90;;;;;;5006088;28;20877;-68
2021/06/07 01:00:44;;;;;;;25.43;22.33;;;16.40;99.90;;;;;;5006862;28;20424;-68
2021/06/07 01:03:11;;;;;;;25.90;23.40;;;16.40;99.90;;;;;;5002563;28;20434;-68
2021/06/07 01:05:37;;;;;;;24.80;22.13;;;16.40;99.90;;;;;;5002463;28;20260;-67
2021/06/07 01:08:04;;;;;;;25.77;23.27;;;16.40;99.90;;;;;;5008869;28;20438;-68
2021/06/07 01:10:30;;;;;;;25.30;22.77;;;16.40;99.90;;;;;;5001686;28;21313;-68
2021/06/07 01:12:55;;;;;;;26.90;24.23;;;16.40;99.90;;;;;;5011561;28;20547;-68
2021/06/07 01:15:21;;;;;;;26.10;23.40;;;16.30;99.90;;;;;;5021293;28;20512;-67
2021/06/07 01:17:48;;;;;;;27.37;24.70;;;16.40;99.90;;;;;;5019550;28;20532;-68
2021/06/07 01:20:17;;;;;;;27.10;24.37;;;16.30;99.90;;;;;;5010385;28;20181;-68
2021/06/07 01:22:44;;;;;;;26.93;24.20;;;16.30;99.90;;;;;;5009344;28;20428;-68
2021/06/07 01:25:18;;;;;;;28.80;25.90;;;16.30;99.90;;;;;;4995440;28;20519;-67
2021/06/07 01:27:44;;;;;;;28.33;25.33;;;16.30;99.90;;;;;;5005441;28;20419;-68
2021/06/07 01:30:15;;;;;;;30.60;26.90;;;16.20;99.90;;;;;;5010027;28;20700;-67
2021/06/07 01:32:41;;;;;;;30.17;27.30;;;16.20;99.90;;;;;;4998479;28;20206;-67
2021/06/07 01:35:10;;;;;;;29.77;26.80;;;16.30;99.90;;;;;;5008623;28;20523;-68
2021/06/07 01:37:36;;;;;;;30.10;26.90;;;16.20;99.90;;;;;;5010562;28;20460;-68
2021/06/07 01:40:04;;;;;;;31.17;27.90;;;16.20;99.90;;;;;;5008944;28;20471;-67
2021/06/07 01:42:30;;;;;;;29.87;26.70;;;16.30;99.90;;;;;;5008111;28;20991;-68
2021/06/07 01:44:55;;;;;;;28.87;25.93;;;16.30;99.90;;;;;;5002402;28;21242;-67
2021/06/07 01:47:21;;;;;;;31.10;27.30;;;16.20;99.90;;;;;;5012171;28;20264;-68
2021/06/07 01:49:47;;;;;;;27.30;24.80;;;16.20;99.90;;;;;;5010019;28;20184;-68
2021/06/07 01:52:14;;;;;;;29.53;26.53;;;16.30;99.90;;;;;;5005076;28;20198;-67
2021/06/07 01:54:39;;;;;;;28.73;25.93;;;16.30;99.90;;;;;;5008447;28;20498;-68
2021/06/07 01:57:06;;;;;;;29.13;26.33;;;16.20;99.90;;;;;;5010826;28;20432;-68
2021/06/07 01:59:31;;;;;;;27.67;24.93;;;16.20;99.90;;;;;;5010263;28;20205;-68
2021/06/07 02:01:57;;;;;;;28.30;25.40;;;16.20;99.90;;;;;;5009824;28;20440;-68
2021/06/07 02:04:22;;;;;;;30.93;25.70;;;16.20;99.90;;;;;;5001281;28;20646;-68
2021/06/07 02:06:48;;;;;;;27.50;24.83;;;16.20;99.90;;;;;;5011518;28;20654;-68
2021/06/07 02:09:14;;;;;;;27.90;24.73;;;16.20;99.90;;;;;;5008708;28;20181;-68
2021/06/07 02:11:40;;;;;;;29.73;26.73;;;16.20;99.90;;;;;;5009328;28;20190;-68
2021/06/07 02:14:06;;;;;;;26.47;23.87;;;16.20;99.90;;;;;;5006640;28;20435;-67
2021/06/07 02:16:34;;;;;;;25.83;23.33;;;16.20;99.90;;;;;;5011457;28;20428;-67
2021/06/07 02:19:02;;;;;;;28.67;25.83;;;16.20;99.90;;;;;;5010268;28;20763;-68
2021/06/07 02:21:29;;;;;;;27.43;24.67;;;16.20;99.90;;;;;;5006383;28;20514;-68
2021/06/07 02:23:55;;;;;;;27.50;24.73;;;16.20;99.90;;;;;;5005731;28;20440;-68
2021/06/07 02:26:23;;;;;;;26.80;24.10;;;16.20;99.90;;;;;;4999377;28;20432;-68
2021/06/07 02:29:02;;;;;;;26.57;24.00;;;16.20;99.90;;;;;;5011360;28;20431;-68
2021/06/07 02:31:29;;;;;;;25.77;23.10;;;16.20;99.90;;;;;;5006962;28;20478;-68
2021/06/07 02:33:57;;;;;;;25.60;22.90;;;16.20;99.90;;;;;;5000404;28;20435;-68
2021/06/07 02:36:25;;;;;;;25.63;23.10;;;16.20;99.90;;;;;;5007334;28;20421;-68
2021/06/07 02:38:51;;;;;;;26.07;23.47;;;16.20;99.90;;;;;;5008078;28;20438;-69
2021/06/07 02:41:18;;;;;;;26.97;24.20;;;16.20;99.90;;;;;;5010416;28;20514;-69
2021/06/07 02:43:44;;;;;;;28.10;25.40;;;16.20;99.90;;;;;;5008896;28;20180;-69
2021/06/07 02:46:10;;;;;;;25.37;22.80;;;16.20;99.90;;;;;;5009038;28;21009;-69
2021/06/07 02:48:36;;;;;;;25.10;22.53;;;16.10;99.90;;;;;;5006630;28;20534;-69
2021/06/07 02:51:03;;;;;;;26.47;23.87;;;16.10;99.90;;;;;;5008507;28;20196;-69
2021/06/07 02:53:29;;;;;;;27.30;24.53;;;16.10;99.90;;;;;;5010024;28;20451;-71
2021/06/07 02:55:55;;;;;;;27.57;24.87;;;16.10;99.90;;;;;;5007774;28;20431;-70
2021/06/07 02:58:23;;;;;;;25.73;23.33;;;16.10;99.90;;;;;;5007652;28;20215;-70
2021/06/07 03:00:58;;;;;;;27.03;24.40;;;16.10;99.90;;;;;;5009650;28;20478;-71
2021/06/07 03:03:24;;;;;;;27.57;24.63;;;16.10;99.90;;;;;;5008894;28;20776;-71
2021/06/07 03:05:52;;;;;;;28.87;24.33;;;16.10;99.90;;;;;;5008282;28;20451;-71
2021/06/07 03:08:23;;;;;;;29.57;26.57;;;16.10;99.90;;;;;;5007664;28;20440;-70
2021/06/07 03:10:51;;;;;;;27.83;24.40;;;16.00;99.90;;;;;;5008071;28;20421;-70
2021/06/07 03:13:21;;;;;;;31.43;28.10;;;16.00;99.90;;;;;;5008028;28;20514;-70
2021/06/07 03:15:48;;;;;;;30.23;27.13;;;16.00;99.90;;;;;;5008851;28;20435;-71
2021/06/07 03:18:14;;;;;;;30.90;27.80;;;16.00;99.90;;;;;;4998042;28;20776;-71
2021/06/07 03:20:39;;;;;;;29.57;26.57;;;16.00;99.90;;;;;;5006132;28;20428;-71
2021/06/07 03:23:11;;;;;;;28.50;25.37;;;16.00;99.90;;;;;;5002082;28;20830;-71
2021/06/07 03:25:39;;;;;;;28.50;25.43;;;16.00;99.90;;;;;;5008322;28;20201;-71
2021/06/07 03:28:06;;;;;;;26.77;24.07;;;16.00;99.90;;;;;;5000579;28;20428;-71
2021/06/07 03:30:31;;;;;;;27.80;25.10;;;16.00;99.90;;;;;;5004996;28;20447;-71
2021/06/07 03:32:57;;;;;;;27.67;24.83;;;16.00;99.90;;;;;;5006168;28;20964;-71
2021/06/07 03:35:23;;;;;;;25.37;22.80;;;16.00;99.90;;;;;;4995971;28;20182;-71
2021/06/07 03:37:49;;;;;;;24.57;22.10;;;16.00;99.90;;;;;;5003517;28;20704;-71
2021/06/07 03:40:23;;;;;;;25.60;23.10;;;16.00;99.90;;;;;;4997429;28;20849;-71
2021/06/07 03:42:49;;;;;;;26.10;23.50;;;16.00;99.90;;;;;;4998930;28;20792;-71
2021/06/07 03:45:16;;;;;;;24.63;22.20;;;16.00;99.90;;;;;;5007464;28;20451;-71
2021/06/07 03:47:44;;;;;;;27.13;24.30;;;16.00;99.90;;;;;;4999674;28;20436;-71
2021/06/07 03:50:10;;;;;;;26.20;23.47;;;16.00;99.90;;;;;;5003156;28;20519;-71
2021/06/07 03:52:37;;;;;;;24.50;22.00;;;16.00;99.90;;;;;;5005240;28;20480;-71
2021/06/07 03:55:05;;;;;;;31.83;23.43;;;16.00;99.90;;;;;;5008689;28;20435;-71
2021/06/07 03:57:30;;;;;;;26.30;23.80;;;16.00;99.90;;;;;;4999327;28;20477;-71
2021/06/07 03:59:56;;;;;;;30.27;27.27;;;16.00;99.90;;;;;;5005146;28;20475;-71
2021/06/07 04:02:22;;;;;;;30.93;27.63;;;16.00;99.90;;;;;;5005472;28;20221;-71
2021/06/07 04:04:48;;;;;;;32.43;28.93;;;16.00;99.90;;;;;;5006543;28;20180;-70
2021/06/07 04:07:13;;;;;;;31.40;28.10;;;16.00;99.90;;;;;;5007195;28;20438;-71
2021/06/07 04:09:41;;;;;;;32.67;28.13;;;16.00;99.90;;;;;;5006513;28;20219;-70
2021/06/07 04:12:07;;;;;;;29.80;26.90;;;16.00;99.90;;;;;;5001564;28;20205;-71
2021/06/07 04:14:32;;;;;;;29.17;26.37;;;16.00;99.90;;;;;;5003444;28;20468;-71
2021/06/07 04:16:58;;;;;;;33.60;30.20;;;16.00;99.90;;;;;;5001775;28;20463;-71
2021/06/07 04:19:24;;;;;;;33.80;30.30;;;16.00;99.90;;;;;;5008898;28;20185;-71
2021/06/07 04:21:50;;;;;;;33.73;29.63;;;16.00;99.90;;;;;;5002319;28;20439;-71
2021/06/07 04:24:15;;;;;;;32.50;29.07;;;16.00;99.90;;;;;;5006398;28;20291;-71
2021/06/07 04:26:41;;;;;;;33.73;30.23;;;16.00;99.90;;;;;;5005495;28;20185;-71
2021/06/07 04:29:06;;;;;;;31.57;28.27;;;16.00;99.90;;;;;;5006580;28;20183;-71
2021/06/07 04:31:32;;;;;;;31.70;27.40;;;16.00;99.90;;;;;;5005496;28;20262;-71
2021/06/07 04:33:58;;;;;;;31.47;28.10;;;16.00;99.90;;;;;;5005280;28;20184;-71
2021/06/07 04:36:24;;;;;;;32.73;28.77;;;16.00;99.90;;;;;;5008507;28;20443;-71
2021/06/07 04:38:49;;;;;;;33.50;30.10;;;15.90;99.90;;;;;;5004656;28;20196;-71
2021/06/07 04:41:15;;;;;;;31.03;27.33;;;15.90;99.90;;;;;;4997888;28;20276;-71
2021/06/07 04:43:40;;;;;;;29.13;25.83;;;15.80;99.90;;;;;;5007453;28;20188;-71
2021/06/07 04:46:06;;;;;;;31.53;28.20;;;15.80;99.90;;;;;;5006740;28;20251;-71
2021/06/07 04:48:32;;;;;;;30.40;27.40;;;15.80;99.90;;;;;;5002540;28;20181;-71
2021/06/07 04:50:57;;;;;;;27.63;24.63;;;15.80;99.90;;;;;;5005509;28;20188;-71
2021/06/07 04:53:23;;;;;;;28.60;25.80;;;15.90;99.90;;;;;;4999809;28;20583;-71
2021/06/07 04:55:53;;;;;;;26.83;23.93;;;15.90;99.90;;;;;;5006779;28;20576;-71
2021/06/07 04:58:26;;;;;;;27.17;24.43;;;16.00;99.90;;;;;;5003005;28;20184;-71
2021/06/07 05:00:55;;;;;;;29.23;26.43;;;16.00;99.90;;;;;;5006511;28;20436;-71
2021/06/07 05:03:22;;;;;;;29.53;26.73;;;16.10;99.90;;;;;;5005730;28;20469;-71
2021/06/07 05:05:47;;;;;;;26.33;23.73;;;16.20;99.90;;;;;;5006624;28;20433;-71
2021/06/07 05:08:13;;;;;;;26.70;24.13;;;16.20;99.90;;;;;;5000998;28;20443;-71
2021/06/07 05:10:39;;;;;;;27.00;24.30;;;16.30;99.90;;;;;;4999846;28;20177;-71
2021/06/07 05:13:05;;;;;;;27.70;24.20;;;16.30;99.90;;;;;;5007634;28;20193;-71
2021/06/07 05:15:31;;;;;;;25.87;23.27;;;16.40;99.90;;;;;;5006145;28;20434;-71
2021/06/07 05:17:57;;;;;;;26.17;23.50;;;16.40;99.90;;;;;;4998044;28;20182;-70
2021/06/07 05:20:26;;;;;;;27.03;24.33;;;16.40;99.90;;;;;;5009698;28;20440;-71
2021/06/07 05:22:53;;;;;;;26.33;23.60;;;16.40;99.90;;;;;;5006998;28;20251;-71
2021/06/07 05:25:20;;;;;;;30.07;26.87;;;16.40;99.90;;;;;;5009867;28;20435;-71
2021/06/07 05:27:46;;;;;;;28.10;25.20;;;16.40;99.90;;;;;;5006667;28;20451;-71
2021/06/07 05:30:13;;;;;;;31.10;27.43;;;16.40;99.90;;;;;;5010538;28;20493;-71
2021/06/07 05:32:39;;;;;;;31.97;28.57;;;16.40;99.90;;;;;;5009488;28;20798;-71
2021/06/07 05:35:07;;;;;;;41.90;34.40;;;16.40;99.90;;;;;;5008813;28;21016;-71
2021/06/07 05:37:33;;;;;;;39.97;32.77;;;16.50;99.90;;;;;;5003755;28;20189;-71
2021/06/07 05:39:58;;;;;;;37.97;33.53;;;16.50;99.90;;;;;;5004802;28;21011;-71
2021/06/07 05:42:24;;;;;;;37.77;32.37;;;16.50;99.90;;;;;;5010674;28;20190;-71
2021/06/07 05:44:50;;;;;;;38.13;30.53;;;16.50;99.90;;;;;;5006691;28;20179;-71
2021/06/07 05:47:15;;;;;;;33.60;30.00;;;16.50;99.90;;;;;;5009746;28;20201;-71
2021/06/07 05:49:41;;;;;;;34.10;29.17;;;16.50;99.90;;;;;;5003339;28;20189;-71
2021/06/07 05:52:08;;;;;;;29.63;26.23;;;16.60;99.90;;;;;;4999593;28;20206;-71
2021/06/07 05:54:35;;;;;;;30.73;25.13;;;16.60;99.90;;;;;;4997377;28;20208;-71
2021/06/07 05:57:02;;;;;;;27.60;24.80;;;16.60;99.90;;;;;;4998582;28;20432;-71
2021/06/07 05:59:28;;;;;;;31.20;26.90;;;16.60;99.90;;;;;;4999091;28;22370;-71
2021/06/07 06:01:54;;;;;;;28.40;24.60;;;16.70;99.90;;;;;;5003092;28;20431;-71
2021/06/07 06:04:19;;;;;;;26.17;23.23;;;16.70;99.90;;;;;;5002148;28;20464;-71
2021/06/07 06:06:45;;;;;;;29.17;26.37;;;16.70;99.90;;;;;;5003343;28;20436;-71
2021/06/07 06:09:10;;;;;;;28.60;25.50;;;16.80;99.90;;;;;;5000179;28;20190;-71
2021/06/07 06:11:36;;;;;;;26.87;23.03;;;16.80;99.90;;;;;;5006231;28;20205;-71
2021/06/07 06:14:02;;;;;;;27.07;24.20;;;16.80;99.90;;;;;;5011485;28;20181;-71
2021/06/07 06:16:28;;;;;;;26.63;22.70;;;16.80;99.90;;;;;;5009846;28;20240;-71
2021/06/07 06:18:54;;;;;;;25.80;22.57;;;16.80;99.90;;;;;;5008397;28;20450;-71
2021/06/07 06:21:20;;;;;;;25.90;23.20;;;16.80;99.90;;;;;;5004038;28;20441;-71
2021/06/07 06:23:45;;;;;;;28.07;23.60;;;16.90;99.90;;;;;;5009044;28;20177;-71
2021/06/07 06:26:11;;;;;;;31.40;25.17;;;16.90;99.90;;;;;;5007072;28;20189;-71
2021/06/07 06:28:38;;;;;;;27.30;24.27;;;16.90;99.90;;;;;;5003848;28;20268;-71
2021/06/07 06:31:06;;;;;;;31.27;26.73;;;16.90;99.90;;;;;;5003114;28;20177;-71
2021/06/07 06:33:33;;;;;;;29.70;26.50;;;17.00;99.90;;;;;;5004950;28;20428;-71
2021/06/07 06:35:59;;;;;;;28.90;25.90;;;17.00;99.90;;;;;;5006179;28;20456;-71
2021/06/07 06:38:25;;;;;;;27.73;24.73;;;17.10;99.90;;;;;;5007886;28;20432;-71
2021/06/07 06:40:52;;;;;;;28.57;24.70;;;17.20;99.90;;;;;;5010220;28;20470;-71
2021/06/07 06:43:21;;;;;;;28.30;24.40;;;17.20;99.90;;;;;;5003811;28;20193;-71
2021/06/07 06:45:47;;;;;;;31.23;27.87;;;17.30;99.90;;;;;;5008213;28;20504;-71
2021/06/07 06:48:13;;;;;;;36.83;28.27;;;17.40;99.90;;;;;;5008065;28;20789;-71
2021/06/07 06:50:40;;;;;;;30.70;26.47;;;17.50;99.90;;;;;;5006670;28;20428;-71
2021/06/07 06:53:10;;;;;;;37.23;30.97;;;17.60;99.90;;;;;;4999517;28;20496;-71
2021/06/07 06:55:36;;;;;;;34.10;30.13;;;17.70;99.90;;;;;;5004782;28;20795;-71
2021/06/07 06:58:03;;;;;;;37.27;32.53;;;17.70;99.90;;;;;;5006505;28;20436;-71
2021/06/07 07:00:31;;;;;;;37.27;32.67;;;17.80;99.90;;;;;;5009657;28;20459;-71
2021/06/07 07:02:56;;;;;;;38.00;33.30;;;17.80;99.90;;;;;;5007490;28;20443;-71
2021/06/07 07:05:22;;;;;;;40.83;31.83;;;17.80;99.90;;;;;;5005150;28;20433;-71
2021/06/07 07:07:48;;;;;;;39.57;32.60;;;17.90;99.90;;;;;;5007505;28;20282;-71
2021/06/07 07:10:13;;;;;;;38.07;32.57;;;18.00;99.90;;;;;;5008751;28;20177;-71
2021/06/07 07:12:39;;;;;;;40.60;31.90;;;18.10;99.90;;;;;;4998562;28;20225;-71
2021/06/07 07:15:06;;;;;;;43.40;34.53;;;18.10;99.90;;;;;;5007581;28;20217;-71
2021/06/07 07:17:31;;;;;;;40.10;33.13;;;18.20;99.90;;;;;;5007320;28;20183;-71
2021/06/07 07:19:57;;;;;;;36.93;32.47;;;18.20;99.90;;;;;;5024333;28;20468;-71
2021/06/07 07:22:23;;;;;;;38.80;34.00;;;18.20;99.90;;;;;;5005242;28;20247;-71
2021/06/07 07:24:49;;;;;;;39.00;32.00;;;18.20;99.90;;;;;;5006511;28;20628;-71
2021/06/07 07:27:18;;;;;;;40.53;34.17;;;18.30;99.90;;;;;;5002641;28;20776;-71
2021/06/07 07:29:44;;;;;;;39.83;32.83;;;18.30;99.90;;;;;;5002642;28;20434;-71
2021/06/07 07:32:11;;;;;;;44.93;35.43;;;18.20;99.90;;;;;;5001405;28;20562;-71
2021/06/07 07:34:39;;;;;;;44.47;36.17;;;18.20;99.90;;;;;;5002697;28;20461;-71
2021/06/07 07:37:05;;;;;;;44.77;35.57;;;18.30;99.90;;;;;;5012190;28;20429;-71
2021/06/07 07:39:31;;;;;;;47.20;37.00;;;18.30;99.90;;;;;;5015578;28;20465;-71
2021/06/07 07:41:56;;;;;;;47.10;34.90;;;18.30;99.90;;;;;;5006196;28;20841;-71
2021/06/07 07:44:23;;;;;;;41.47;34.77;;;18.30;99.90;;;;;;5006599;28;20177;-71
2021/06/07 07:46:48;;;;;;;47.27;37.93;;;18.30;99.90;;;;;;5005852;28;20475;-71
2021/06/07 07:49:14;;;;;;;40.97;32.00;;;18.40;99.90;;;;;;4999199;28;20464;-70
2021/06/07 07:51:41;;;;;;;44.00;33.67;;;18.50;99.90;;;;;;5002162;28;20250;-70
2021/06/07 07:54:08;;;;;;;45.50;33.77;;;18.70;99.90;;;;;;5010458;28;20451;-71
2021/06/07 07:56:38;;;;;;;35.27;31.43;;;18.80;99.90;;;;;;5001571;28;20421;-71
2021/06/07 07:59:03;;;;;;;38.13;30.87;;;18.90;99.90;;;;;;5010432;28;20518;-71
2021/06/07 08:01:29;;;;;;;42.43;32.40;;;18.90;99.90;;;;;;5008615;28;20435;-71
2021/06/07 08:03:56;;;;;;;42.00;30.73;;;19.00;99.90;;;;;;5004371;28;20877;-71
2021/06/07 08:06:22;;;;;;;38.17;28.97;;;19.00;99.90;;;;;;5005416;28;20440;-71
2021/06/07 08:08:47;;;;;;;36.20;28.20;;;19.00;99.90;;;;;;5005798;28;20865;-71
2021/06/07 08:11:13;;;;;;;37.80;28.87;;;19.00;99.90;;;;;;4999746;28;20185;-71
2021/06/07 08:13:39;;;;;;;33.43;29.83;;;19.00;99.90;;;;;;5006912;28;20670;-71
2021/06/07 08:16:05;;;;;;;37.03;28.43;;;19.10;99.90;;;;;;5007971;28;20649;-71
2021/06/07 08:18:31;;;;;;;33.07;27.93;;;19.10;99.90;;;;;;5004776;28;20432;-71
2021/06/07 08:20:57;;;;;;;29.90;25.97;;;19.10;99.90;;;;;;5003361;28;20432;-71
2021/06/07 08:23:22;;;;;;;35.17;27.57;;;19.10;99.90;;;;;;5007602;28;20711;-71
2021/06/07 08:25:48;;;;;;;35.60;28.47;;;19.00;99.90;;;;;;5003986;28;20327;-71
2021/06/07 08:28:14;;;;;;;33.50;28.00;;;19.00;99.90;;;;;;5004800;28;20193;-71
2021/06/07 08:30:40;;;;;;;35.20;31.20;;;18.90;99.90;;;;;;5006738;28;20185;-71
2021/06/07 08:33:06;;;;;;;37.23;29.57;;;18.90;99.90;;;;;;5007423;28;20197;-71
2021/06/07 08:35:32;;;;;;;32.33;26.63;;;18.90;99.90;;;;;;5003101;28;20431;-71
2021/06/07 08:37:58;;;;;;;33.07;29.57;;;19.00;99.90;;;;;;5007162;28;20908;-71
2021/06/07 08:40:24;;;;;;;33.80;27.70;;;19.10;99.90;;;;;;5006834;28;21324;-71
2021/06/07 08:42:50;;;;;;;31.10;27.70;;;19.10;99.90;;;;;;5008604;28;20271;-71
2021/06/07 08:45:20;;;;;;;32.10;28.13;;;19.20;99.90;;;;;;5007382;28;20876;-71
2021/06/07 08:47:47;;;;;;;28.87;25.97;;;19.30;99.90;;;;;;5006519;28;20189;-71
2021/06/07 08:50:15;;;;;;;29.40;26.40;;;19.30;99.90;;;;;;5005228;28;20807;-71
2021/06/07 08:52:43;;;;;;;30.63;27.43;;;19.30;99.90;;;;;;5007881;28;20486;-71
2021/06/07 08:55:12;;;;;;;33.30;27.30;;;19.30;99.90;;;;;;5009899;28;20435;-71
2021/06/07 08:57:43;;;;;;;29.53;25.43;;;19.40;99.90;;;;;;5011605;28;20961;-71
2021/06/07 09:00:11;;;;;;;28.43;25.37;;;19.50;99.90;;;;;;5016426;28;20486;-71
2021/06/07 09:02:39;;;;;;;29.03;26.03;;;19.50;99.90;;;;;;5015802;28;20455;-71
2021/06/07 09:05:06;;;;;;;28.07;25.00;;;19.50;99.90;;;;;;5001951;28;20480;-71
2021/06/07 09:07:32;;;;;;;26.57;23.17;;;19.50;99.90;;;;;;5011122;28;21027;-71
2021/06/07 09:10:10;;;;;;;24.83;21.60;;;19.40;99.90;;;;;;5010675;28;20470;-71
2021/06/07 09:12:36;;;;;;;26.63;23.77;;;19.40;99.90;;;;;;5012462;28;20796;-71
2021/06/07 09:15:03;;;;;;;27.10;24.30;;;19.30;99.90;;;;;;5008376;28;20432;-71
2021/06/07 09:17:29;;;;;;;31.53;26.03;;;19.40;99.90;;;;;;5021873;28;20206;-71
2021/06/07 09:20:14;;;;;;;28.30;22.73;;;19.40;99.90;;;;;;5006037;28;20435;-71
2021/06/07 09:22:46;;;;;;;22.97;20.50;;;19.40;99.90;;;;;;5004804;28;20199;-72
2021/06/07 09:25:14;;;;;;;24.50;21.97;;;19.50;99.90;;;;;;4994044;28;20501;-71
2021/06/07 09:27:58;;;;;;;24.00;21.53;;;19.60;99.90;;;;;;5006395;28;20440;-71
2021/06/07 09:30:29;;;;;;;25.20;21.53;;;19.70;99.90;;;;;;5023533;28;20440;-71
2021/06/07 09:33:34;;;;;;;24.90;22.33;;;19.80;99.90;;;;;;5010641;28;20957;-71
2021/06/07 09:36:25;;;;;;;28.43;22.47;;;19.90;99.90;;;;;;5011243;28;20432;-71
2021/06/07 09:39:11;;;;;;;23.80;21.27;;;20.10;99.90;;;;;;5018218;28;20446;-71
2021/06/07 09:41:43;;;;;;;23.23;19.33;;;20.50;99.90;;;;;;5004198;28;20475;-71
2021/06/07 09:44:09;;;;;;;20.63;17.93;;;21.20;99.90;;;;;;5003128;28;20519;-71
2021/06/07 09:46:34;;;;;;;22.60;16.43;;;22.00;99.90;;;;;;5010701;28;21016;-71
2021/06/07 09:49:16;;;;;;;19.57;15.40;;;22.70;99.90;;;;;;5009981;28;20467;-71
2021/06/07 09:51:53;;;;;;;27.43;14.80;;;23.40;99.90;;;;;;5006816;28;20264;-72
2021/06/07 09:54:18;;;;;;;18.47;16.50;;;24.00;99.90;;;;;;5010687;28;20447;-72
2021/06/07 09:56:59;;;;;;;20.63;14.97;;;24.50;99.90;;;;;;5013538;28;20565;-72
2021/06/07 09:59:24;;;;;;;20.10;15.40;;;24.90;98.40;;;;;;5003671;28;20197;-72
2021/06/07 10:01:50;;;;;;;18.37;16.50;;;25.10;97.80;;;;;;5000858;28;20440;-72
2021/06/07 10:04:15;;;;;;;18.73;16.87;;;25.40;96.20;;;;;;5006545;28;20187;-72
2021/06/07 10:06:42;;;;;;;17.57;16.00;;;25.60;95.40;;;;;;5010449;28;20174;-72
2021/06/07 10:09:08;;;;;;;15.10;13.60;;;25.80;95.00;;;;;;5003770;28;20182;-72
2021/06/07 10:11:40;;;;;;;17.67;15.97;;;26.00;93.10;;;;;;5005797;28;20478;-72
2021/06/07 10:14:10;;;;;;;17.23;15.57;;;26.00;92.90;;;;;;5003674;28;20436;-72
2021/06/07 10:16:38;;;;;;;17.93;15.40;;;25.70;92.00;;;;;;5007913;28;20436;-72
2021/06/07 10:19:15;;;;;;;13.17;11.97;;;25.40;92.40;;;;;;5009117;28;20956;-72
2021/06/07 10:21:41;;;;;;;13.27;11.97;;;25.10;92.10;;;;;;5005033;28;20432;-71
2021/06/07 10:24:07;;;;;;;14.00;12.10;;;24.70;92.10;;;;;;5010448;28;20460;-72
2021/06/07 10:26:33;;;;;;;15.60;12.27;;;24.20;93.20;;;;;;5004354;28;20220;-72
2021/06/07 10:28:58;;;;;;;14.43;13.13;;;23.90;94.10;;;;;;5007812;28;20435;-72
2021/06/07 10:31:25;;;;;;;13.90;12.50;;;23.50;95.30;;;;;;5006578;28;20629;-72
2021/06/07 10:34:11;;;;;;;14.80;13.40;;;23.20;95.70;;;;;;5003424;28;20220;-72
2021/06/07 10:36:43;;;;;;;15.73;14.33;;;22.90;96.40;;;;;;4999142;28;20857;-72
2021/06/07 10:39:14;;;;;;;15.40;13.80;;;22.70;97.20;;;;;;5001846;28;20431;-72
2021/06/07 10:41:45;;;;;;;17.37;15.70;;;22.60;97.40;;;;;;5010121;28;20431;-72
2021/06/07 10:44:11;;;;;;;15.90;14.40;;;22.50;98.60;;;;;;5008706;28;20971;-72
2021/06/07 10:46:42;;;;;;;16.60;15.00;;;22.50;98.20;;;;;;4999539;28;20431;-72
2021/06/07 10:49:45;;;;;;;14.30;13.00;;;22.50;98.80;;;;;;5007460;28;20435;-72
2021/06/07 10:52:25;;;;;;;14.70;13.33;;;22.40;98.60;;;;;;5001353;28;20475;-72
2021/06/07 10:55:04;;;;;;;15.10;13.70;;;22.30;99.00;;;;;;5008537;28;20420;-72
2021/06/07 10:57:34;;;;;;;14.57;13.17;;;22.10;99.10;;;;;;5008734;28;21024;-72
2021/06/07 11:00:16;;;;;;;17.83;15.07;;;22.00;99.70;;;;;;5005485;28;20541;-72
2021/06/07 11:02:45;;;;;;;16.20;14.57;;;21.80;99.90;;;;;;5005951;28;20435;-72
2021/06/07 11:05:15;;;;;;;17.03;15.33;;;21.70;99.90;;;;;;5005231;28;20433;-72
2021/06/07 11:07:44;;;;;;;17.67;16.00;;;21.50;99.90;;;;;;5011686;28;20432;-72
2021/06/07 11:10:11;;;;;;;17.03;15.50;;;21.30;99.90;;;;;;5006736;28;20428;-72
2021/06/07 11:12:38;;;;;;;18.50;16.70;;;21.20;99.90;;;;;;5007852;28;20460;-72
2021/06/07 11:15:07;;;;;;;19.30;17.50;;;21.00;99.90;;;;;;5001741;28;20469;-72
2021/06/07 11:17:32;;;;;;;20.20;18.10;;;20.90;99.90;;;;;;5006081;28;20420;-72
2021/06/07 11:19:58;;;;;;;19.67;17.77;;;20.80;99.90;;;;;;5002932;28;20479;-72
2021/06/07 11:22:23;;;;;;;19.00;17.10;;;20.70;99.90;;;;;;4997362;28;20177;-72
2021/06/07 11:24:50;;;;;;;18.87;17.07;;;20.70;99.90;;;;;;4999709;28;20594;-72
2021/06/07 11:27:48;;;;;;;20.40;18.60;;;20.60;99.90;;;;;;5004301;28;20173;-72
2021/06/07 11:30:19;;;;;;;18.03;16.30;;;20.70;99.90;;;;;;4970890;28;20433;-72
2021/06/07 11:32:45;;;;;;;18.57;16.77;;;20.70;99.90;;;;;;5007410;28;20958;-72
2021/06/07 11:35:42;;;;;;;17.80;15.90;;;20.70;99.90;;;;;;4997578;28;20524;-72
2021/06/07 11:38:31;;;;;;;15.63;14.20;;;20.80;99.90;;;;;;5002101;28;20276;-72
2021/06/07 11:40:58;;;;;;;13.07;11.87;;;20.80;99.90;;;;;;4994552;28;20467;-72
2021/06/07 11:43:46;;;;;;;14.00;12.70;;;20.80;99.90;;;;;;5007529;28;20866;-72
2021/06/07 11:46:32;;;;;;;14.93;13.53;;;20.80;99.90;;;;;;5007422;28;20450;-72
2021/06/07 11:49:12;;;;;;;14.47;12.93;;;20.80;99.90;;;;;;5008949;28;20527;-72
2021/06/07 11:51:40;;;;;;;13.40;12.20;;;20.80;99.90;;;;;;5007277;28;20925;-72
2021/06/07 11:54:24;;;;;;;13.27;12.17;;;20.70;99.90;;;;;;5007866;28;20428;-72
2021/06/07 11:57:05;;;;;;;13.90;12.50;;;20.70;99.90;;;;;;5007086;28;20429;-72
2021/06/07 11:59:32;;;;;;;14.67;13.37;;;20.60;99.90;;;;;;4998879;28;20456;-72
2021/06/07 12:01:59;;;;;;;13.30;12.00;;;20.60;99.90;;;;;;5006479;28;20436;-72
2021/06/07 12:04:30;;;;;;;14.00;12.80;;;20.50;99.90;;;;;;5002014;28;20473;-72
2021/06/07 12:07:09;;;;;;;16.10;14.50;;;20.40;99.90;;;;;;5008839;28;21003;-72
2021/06/07 12:09:37;;;;;;;13.67;12.37;;;20.40;99.90;;;;;;5007393;28;20965;-72
2021/06/07 12:12:04;;;;;;;14.03;12.73;;;20.30;99.90;;;;;;5007970;28;20499;-72
2021/06/07 12:14:39;;;;;;;15.03;13.50;;;20.20;99.90;;;;;;5004957;28;20445;-72
2021/06/07 12:17:09;;;;;;;15.17;13.63;;;20.20;99.90;;;;;;5004317;28;20427;-72
2021/06/07 12:19:42;;;;;;;15.60;13.47;;;20.10;99.90;;;;;;5007094;28;20482;-72
2021/06/07 12:22:28;;;;;;;19.13;13.20;;;20.00;99.90;;;;;;5004144;28;20784;-72
2021/06/07 12:25:02;;;;;;;14.53;13.13;;;19.80;99.90;;;;;;5008667;28;20439;-72
2021/06/07 12:30:23;;;;;;;13.70;12.30;;;19.70;99.90;;;;;;5008582;28;20783;-72
2021/06/07 12:32:49;;;;;;;12.33;10.13;;;19.60;99.90;;;;;;4996306;28;20577;-72
2021/06/07 12:35:18;;;;;;;11.17;8.70;;;19.50;99.90;;;;;;4994786;28;20428;-72
2021/06/07 12:38:10;;;;;;;10.20;9.20;;;19.50;99.90;;;;;;4999592;28;20558;-72